Main page
METAR-TAF:

METAR-TAF

Airports :

Rahim Yar Khan, Pakistan

Shaikh Zayed International Airport

latitude: 28-23-02N, longitude: 70-16-47E, elevation: 83 m

METAR: missing

Time: 01:37 (20:37 UTC)

Forecast

The report was made 4 hours and 7 minutes ago, at 16:30 UTC
Forecast valid from 30 at 18 UTC to 01 at 12 UTC
Wind 10 kt from the Southwest
Visibility: 5000 m
Few clouds at a height of 12000 ft
haze

TAF: OPRK 301630Z 3018/0112 23010KT 5000 HZ FEW120 TN24/0100Z TX41/0110Z

Weather observations and forecasts of more than 4000 airports (METAR and TAF reports).

The available stations are represented by yellow and red dots on the map.

Hover mouse over dot to see the name of the station.

Then click to see weather observations and forecasts.

To change the map : click on the green buttons with a black cross to zoom in, on the green button with a dash to zoom out, or on the green arrows for adjacent maps.


METAR-TAF: